sensor_id;sensor_type;location;lat;lon;timestamp;P1;durP1;ratioP1;P2;durP2;ratioP2
28844;SDS011;15976;47.938;7.758;2024-03-17T00:00:04;14.00;;;5.13;;
28844;SDS011;15976;47.938;7.758;2024-03-17T00:02:32;9.30;;;4.85;;
28844;SDS011;15976;47.938;7.758;2024-03-17T00:04:58;12.57;;;5.70;;
28844;SDS011;15976;47.938;7.758;2024-03-17T00:07:24;11.45;;;5.97;;
28844;SDS011;15976;47.938;7.758;2024-03-17T00:09:50;11.10;;;5.68;;
28844;SDS011;15976;47.938;7.758;2024-03-17T00:12:16;13.38;;;5.88;;
28844;SDS011;15976;47.938;7.758;2024-03-17T00:14:42;11.10;;;5.70;;
28844;SDS011;15976;47.938;7.758;2024-03-17T00:17:08;8.52;;;5.15;;
28844;SDS011;15976;47.938;7.758;2024-03-17T00:19:34;13.50;;;5.40;;
28844;SDS011;15976;47.938;7.758;2024-03-17T00:22:01;9.63;;;5.25;;
28844;SDS011;15976;47.938;7.758;2024-03-17T00:24:27;12.38;;;5.13;;
28844;SDS011;15976;47.938;7.758;2024-03-17T00:27:03;12.00;;;4.70;;
28844;SDS011;15976;47.938;7.758;2024-03-17T00:29:29;7.90;;;4.82;;
28844;SDS011;15976;47.938;7.758;2024-03-17T00:31:55;8.95;;;4.78;;
28844;SDS011;15976;47.938;7.758;2024-03-17T00:34:22;11.93;;;4.90;;
28844;SDS011;15976;47.938;7.758;2024-03-17T00:36:48;14.85;;;5.70;;
28844;SDS011;15976;47.938;7.758;2024-03-17T00:39:14;9.70;;;4.90;;
28844;SDS011;15976;47.938;7.758;2024-03-17T00:41:40;15.60;;;5.18;;
28844;SDS011;15976;47.938;7.758;2024-03-17T00:44:06;11.05;;;4.70;;
28844;SDS011;15976;47.938;7.758;2024-03-17T00:46:32;16.48;;;5.28;;
28844;SDS011;15976;47.938;7.758;2024-03-17T00:48:58;10.70;;;5.45;;
28844;SDS011;15976;47.938;7.758;2024-03-17T00:51:26;11.40;;;5.28;;
28844;SDS011;15976;47.938;7.758;2024-03-17T00:53:52;12.32;;;5.35;;
28844;SDS011;15976;47.938;7.758;2024-03-17T00:56:18;9.32;;;5.30;;
28844;SDS011;15976;47.938;7.758;2024-03-17T00:58:44;9.00;;;5.13;;
28844;SDS011;15976;47.938;7.758;2024-03-17T01:01:11;13.98;;;5.32;;
28844;SDS011;15976;47.938;7.758;2024-03-17T01:03:37;13.13;;;5.47;;
28844;SDS011;15976;47.938;7.758;2024-03-17T01:06:03;12.77;;;4.93;;
28844;SDS011;15976;47.938;7.758;2024-03-17T01:08:30;11.45;;;5.70;;
28844;SDS011;15976;47.938;7.758;2024-03-17T01:10:56;11.60;;;5.75;;
28844;SDS011;15976;47.938;7.758;2024-03-17T01:13:23;13.55;;;5.13;;
28844;SDS011;15976;47.938;7.758;2024-03-17T01:15:53;15.18;;;5.32;;
28844;SDS011;15976;47.938;7.758;2024-03-17T01:18:19;8.95;;;4.80;;
28844;SDS011;15976;47.938;7.758;2024-03-17T01:20:45;12.20;;;4.45;;
28844;SDS011;15976;47.938;7.758;2024-03-17T01:23:11;13.85;;;4.07;;
28844;SDS011;15976;47.938;7.758;2024-03-17T01:25:39;8.05;;;4.70;;
28844;SDS011;15976;47.938;7.758;2024-03-17T01:28:05;12.00;;;5.45;;
28844;SDS011;15976;47.938;7.758;2024-03-17T01:30:32;10.85;;;5.45;;
28844;SDS011;15976;47.938;7.758;2024-03-17T01:32:59;15.57;;;7.20;;
28844;SDS011;15976;47.938;7.758;2024-03-17T01:35:26;10.55;;;4.55;;
28844;SDS011;15976;47.938;7.758;2024-03-17T01:37:52;10.48;;;4.75;;
28844;SDS011;15976;47.938;7.758;2024-03-17T01:40:18;13.30;;;5.00;;
28844;SDS011;15976;47.938;7.758;2024-03-17T01:42:44;13.98;;;5.18;;
28844;SDS011;15976;47.938;7.758;2024-03-17T01:47:42;7.78;;;3.10;;
28844;SDS011;15976;47.938;7.758;2024-03-17T01:50:09;8.15;;;3.00;;
28844;SDS011;15976;47.938;7.758;2024-03-17T01:52:37;8.30;;;3.17;;
28844;SDS011;15976;47.938;7.758;2024-03-17T01:55:04;13.90;;;6.30;;
28844;SDS011;15976;47.938;7.758;2024-03-17T01:57:30;14.38;;;4.35;;
28844;SDS011;15976;47.938;7.758;2024-03-17T01:59:57;13.27;;;5.30;;
28844;SDS011;15976;47.938;7.758;2024-03-17T02:02:24;10.40;;;4.75;;
28844;SDS011;15976;47.938;7.758;2024-03-17T02:04:50;11.45;;;5.00;;
28844;SDS011;15976;47.938;7.758;2024-03-17T02:07:16;11.63;;;5.05;;
28844;SDS011;15976;47.938;7.758;2024-03-17T02:09:42;11.90;;;4.55;;
28844;SDS011;15976;47.938;7.758;2024-03-17T02:12:09;9.50;;;3.70;;
28844;SDS011;15976;47.938;7.758;2024-03-17T02:14:37;9.32;;;3.28;;
28844;SDS011;15976;47.938;7.758;2024-03-17T02:17:04;18.00;;;3.85;;
28844;SDS011;15976;47.938;7.758;2024-03-17T02:19:30;11.65;;;3.00;;
28844;SDS011;15976;47.938;7.758;2024-03-17T02:21:56;9.43;;;3.53;;
28844;SDS011;15976;47.938;7.758;2024-03-17T02:24:22;9.02;;;3.47;;
28844;SDS011;15976;47.938;7.758;2024-03-17T02:26:48;11.00;;;3.08;;
28844;SDS011;15976;47.938;7.758;2024-03-17T02:29:14;12.10;;;3.30;;
28844;SDS011;15976;47.938;7.758;2024-03-17T02:31:40;8.18;;;2.95;;
28844;SDS011;15976;47.938;7.758;2024-03-17T02:34:06;11.10;;;2.78;;
28844;SDS011;15976;47.938;7.758;2024-03-17T02:36:32;10.50;;;2.92;;
28844;SDS011;15976;47.938;7.758;2024-03-17T02:38:58;7.28;;;2.88;;
28844;SDS011;15976;47.938;7.758;2024-03-17T02:41:43;7.93;;;2.92;;
28844;SDS011;15976;47.938;7.758;2024-03-17T02:44:11;9.98;;;3.00;;
28844;SDS011;15976;47.938;7.758;2024-03-17T02:46:37;6.53;;;2.78;;
28844;SDS011;15976;47.938;7.758;2024-03-17T02:49:03;9.60;;;2.75;;
28844;SDS011;15976;47.938;7.758;2024-03-17T02:51:30;8.60;;;3.33;;
28844;SDS011;15976;47.938;7.758;2024-03-17T02:53:56;11.80;;;3.22;;
28844;SDS011;15976;47.938;7.758;2024-03-17T02:56:25;7.50;;;2.97;;
28844;SDS011;15976;47.938;7.758;2024-03-17T02:58:51;8.30;;;3.28;;
28844;SDS011;15976;47.938;7.758;2024-03-17T03:01:17;12.18;;;3.65;;
28844;SDS011;15976;47.938;7.758;2024-03-17T03:03:44;6.35;;;3.22;;
28844;SDS011;15976;47.938;7.758;2024-03-17T03:06:10;8.20;;;3.45;;
28844;SDS011;15976;47.938;7.758;2024-03-17T03:08:39;11.10;;;3.88;;
28844;SDS011;15976;47.938;7.758;2024-03-17T03:11:09;10.35;;;3.67;;
28844;SDS011;15976;47.938;7.758;2024-03-17T03:13:37;11.15;;;3.92;;
28844;SDS011;15976;47.938;7.758;2024-03-17T03:16:06;8.80;;;4.00;;
28844;SDS011;15976;47.938;7.758;2024-03-17T03:18:36;10.38;;;4.38;;
28844;SDS011;15976;47.938;7.758;2024-03-17T03:21:03;9.73;;;4.10;;
28844;SDS011;15976;47.938;7.758;2024-03-17T03:23:30;8.40;;;4.72;;
28844;SDS011;15976;47.938;7.758;2024-03-17T03:26:00;10.32;;;4.80;;
28844;SDS011;15976;47.938;7.758;2024-03-17T03:28:29;12.15;;;4.93;;
28844;SDS011;15976;47.938;7.758;2024-03-17T03:30:56;12.27;;;4.95;;
28844;SDS011;15976;47.938;7.758;2024-03-17T03:33:22;10.43;;;4.82;;
28844;SDS011;15976;47.938;7.758;2024-03-17T03:35:49;12.57;;;4.88;;
28844;SDS011;15976;47.938;7.758;2024-03-17T03:38:16;10.05;;;5.15;;
28844;SDS011;15976;47.938;7.758;2024-03-17T03:40:43;12.32;;;5.03;;
28844;SDS011;15976;47.938;7.758;2024-03-17T03:43:10;13.40;;;5.85;;
28844;SDS011;15976;47.938;7.758;2024-03-17T03:45:36;13.60;;;5.90;;
28844;SDS011;15976;47.938;7.758;2024-03-17T03:48:03;8.93;;;5.47;;
28844;SDS011;15976;47.938;7.758;2024-03-17T03:50:29;10.57;;;5.05;;
28844;SDS011;15976;47.938;7.758;2024-03-17T03:52:56;11.00;;;5.68;;
28844;SDS011;15976;47.938;7.758;2024-03-17T03:55:22;9.35;;;5.00;;
28844;SDS011;15976;47.938;7.758;2024-03-17T03:57:49;15.63;;;5.30;;
28844;SDS011;15976;47.938;7.758;2024-03-17T04:00:19;11.13;;;5.40;;
28844;SDS011;15976;47.938;7.758;2024-03-17T04:02:49;13.05;;;5.85;;
28844;SDS011;15976;47.938;7.758;2024-03-17T04:05:17;14.23;;;6.07;;
28844;SDS011;15976;47.938;7.758;2024-03-17T04:07:45;16.05;;;6.40;;
28844;SDS011;15976;47.938;7.758;2024-03-17T04:10:12;13.60;;;5.93;;
28844;SDS011;15976;47.938;7.758;2024-03-17T04:12:39;13.00;;;6.00;;
28844;SDS011;15976;47.938;7.758;2024-03-17T04:15:05;13.40;;;5.60;;
28844;SDS011;15976;47.938;7.758;2024-03-17T04:17:32;9.60;;;5.50;;
28844;SDS011;15976;47.938;7.758;2024-03-17T04:19:59;13.10;;;5.88;;
28844;SDS011;15976;47.938;7.758;2024-03-17T04:22:25;11.98;;;6.07;;
28844;SDS011;15976;47.938;7.758;2024-03-17T04:24:52;11.90;;;5.85;;
28844;SDS011;15976;47.938;7.758;2024-03-17T04:27:19;15.82;;;6.28;;
28844;SDS011;15976;47.938;7.758;2024-03-17T04:29:46;15.45;;;6.50;;
28844;SDS011;15976;47.938;7.758;2024-03-17T04:32:13;11.65;;;6.13;;
28844;SDS011;15976;47.938;7.758;2024-03-17T04:34:39;16.50;;;7.15;;
28844;SDS011;15976;47.938;7.758;2024-03-17T04:37:06;11.68;;;6.45;;
28844;SDS011;15976;47.938;7.758;2024-03-17T04:39:32;11.73;;;6.18;;
28844;SDS011;15976;47.938;7.758;2024-03-17T04:41:58;10.85;;;6.30;;
28844;SDS011;15976;47.938;7.758;2024-03-17T04:44:25;14.88;;;6.57;;
28844;SDS011;15976;47.938;7.758;2024-03-17T04:46:51;15.45;;;6.53;;
28844;SDS011;15976;47.938;7.758;2024-03-17T04:49:17;12.23;;;5.88;;
28844;SDS011;15976;47.938;7.758;2024-03-17T04:51:43;14.25;;;6.22;;
28844;SDS011;15976;47.938;7.758;2024-03-17T04:54:09;17.00;;;7.05;;
28844;SDS011;15976;47.938;7.758;2024-03-17T04:56:36;14.10;;;6.07;;
28844;SDS011;15976;47.938;7.758;2024-03-17T04:59:02;15.68;;;6.78;;
28844;SDS011;15976;47.938;7.758;2024-03-17T05:01:28;12.10;;;6.53;;
28844;SDS011;15976;47.938;7.758;2024-03-17T05:03:56;14.73;;;6.72;;
28844;SDS011;15976;47.938;7.758;2024-03-17T05:06:22;14.77;;;6.80;;
28844;SDS011;15976;47.938;7.758;2024-03-17T05:08:48;13.57;;;6.93;;
28844;SDS011;15976;47.938;7.758;2024-03-17T05:11:14;19.67;;;8.00;;
28844;SDS011;15976;47.938;7.758;2024-03-17T05:13:41;14.07;;;7.88;;
28844;SDS011;15976;47.938;7.758;2024-03-17T05:16:07;14.15;;;7.50;;
28844;SDS011;15976;47.938;7.758;2024-03-17T05:18:33;15.98;;;7.30;;
28844;SDS011;15976;47.938;7.758;2024-03-17T05:20:59;14.48;;;7.60;;
28844;SDS011;15976;47.938;7.758;2024-03-17T05:23:30;22.67;;;8.55;;
28844;SDS011;15976;47.938;7.758;2024-03-17T05:25:58;18.55;;;7.68;;
28844;SDS011;15976;47.938;7.758;2024-03-17T05:28:25;12.65;;;8.00;;
28844;SDS011;15976;47.938;7.758;2024-03-17T05:30:52;17.42;;;7.85;;
28844;SDS011;15976;47.938;7.758;2024-03-17T05:33:18;14.18;;;7.03;;
28844;SDS011;15976;47.938;7.758;2024-03-17T05:35:50;14.02;;;6.97;;
28844;SDS011;15976;47.938;7.758;2024-03-17T05:38:27;14.27;;;7.10;;
28844;SDS011;15976;47.938;7.758;2024-03-17T05:40:58;15.23;;;7.05;;
28844;SDS011;15976;47.938;7.758;2024-03-17T05:43:34;12.85;;;7.05;;
28844;SDS011;15976;47.938;7.758;2024-03-17T05:46:02;16.60;;;7.35;;
28844;SDS011;15976;47.938;7.758;2024-03-17T05:48:38;15.02;;;7.28;;
28844;SDS011;15976;47.938;7.758;2024-03-17T05:51:06;11.35;;;6.95;;
28844;SDS011;15976;47.938;7.758;2024-03-17T05:53:32;15.65;;;7.63;;
28844;SDS011;15976;47.938;7.758;2024-03-17T05:55:59;11.88;;;7.28;;
28844;SDS011;15976;47.938;7.758;2024-03-17T05:58:26;13.25;;;6.90;;
28844;SDS011;15976;47.938;7.758;2024-03-17T06:00:52;11.60;;;6.97;;
28844;SDS011;15976;47.938;7.758;2024-03-17T06:03:18;18.52;;;7.78;;
28844;SDS011;15976;47.938;7.758;2024-03-17T06:05:45;14.70;;;7.43;;
28844;SDS011;15976;47.938;7.758;2024-03-17T06:08:11;13.65;;;7.65;;
28844;SDS011;15976;47.938;7.758;2024-03-17T06:10:41;12.63;;;6.93;;
28844;SDS011;15976;47.938;7.758;2024-03-17T06:13:14;15.88;;;8.05;;
28844;SDS011;15976;47.938;7.758;2024-03-17T06:15:43;10.80;;;7.38;;
28844;SDS011;15976;47.938;7.758;2024-03-17T06:18:11;14.35;;;8.15;;
28844;SDS011;15976;47.938;7.758;2024-03-17T06:20:40;16.95;;;11.57;;
28844;SDS011;15976;47.938;7.758;2024-03-17T06:23:10;17.48;;;8.23;;
28844;SDS011;15976;47.938;7.758;2024-03-17T06:25:41;15.27;;;7.95;;
28844;SDS011;15976;47.938;7.758;2024-03-17T06:28:08;11.77;;;7.63;;
28844;SDS011;15976;47.938;7.758;2024-03-17T06:30:42;16.10;;;7.63;;
28844;SDS011;15976;47.938;7.758;2024-03-17T06:33:12;14.45;;;7.70;;
28844;SDS011;15976;47.938;7.758;2024-03-17T06:35:39;12.88;;;8.15;;
28844;SDS011;15976;47.938;7.758;2024-03-17T06:38:06;23.20;;;8.80;;
28844;SDS011;15976;47.938;7.758;2024-03-17T06:40:35;16.60;;;8.27;;
28844;SDS011;15976;47.938;7.758;2024-03-17T06:43:02;21.85;;;11.18;;
28844;SDS011;15976;47.938;7.758;2024-03-17T06:45:28;21.27;;;10.15;;
28844;SDS011;15976;47.938;7.758;2024-03-17T06:47:54;16.08;;;8.27;;
28844;SDS011;15976;47.938;7.758;2024-03-17T06:50:21;11.98;;;7.47;;
28844;SDS011;15976;47.938;7.758;2024-03-17T06:52:47;16.05;;;7.22;;
28844;SDS011;15976;47.938;7.758;2024-03-17T06:55:13;11.95;;;8.00;;
28844;SDS011;15976;47.938;7.758;2024-03-17T06:57:42;11.50;;;6.95;;
28844;SDS011;15976;47.938;7.758;2024-03-17T07:00:12;15.93;;;7.35;;
28844;SDS011;15976;47.938;7.758;2024-03-17T07:02:41;16.75;;;7.95;;
28844;SDS011;15976;47.938;7.758;2024-03-17T07:05:12;19.08;;;10.25;;
28844;SDS011;15976;47.938;7.758;2024-03-17T07:07:41;20.17;;;10.30;;
28844;SDS011;15976;47.938;7.758;2024-03-17T07:10:09;18.67;;;10.20;;
28844;SDS011;15976;47.938;7.758;2024-03-17T07:12:40;28.50;;;13.88;;
28844;SDS011;15976;47.938;7.758;2024-03-17T07:15:07;23.98;;;14.52;;
28844;SDS011;15976;47.938;7.758;2024-03-17T07:17:33;26.80;;;15.88;;
28844;SDS011;15976;47.938;7.758;2024-03-17T07:20:00;33.20;;;19.83;;
28844;SDS011;15976;47.938;7.758;2024-03-17T07:22:27;26.27;;;14.25;;
28844;SDS011;15976;47.938;7.758;2024-03-17T07:24:53;18.17;;;9.88;;
28844;SDS011;15976;47.938;7.758;2024-03-17T07:27:27;17.77;;;10.80;;
28844;SDS011;15976;47.938;7.758;2024-03-17T07:29:53;16.98;;;11.35;;
28844;SDS011;15976;47.938;7.758;2024-03-17T07:32:19;18.10;;;10.25;;
28844;SDS011;15976;47.938;7.758;2024-03-17T07:34:45;15.40;;;8.10;;
28844;SDS011;15976;47.938;7.758;2024-03-17T07:37:11;14.85;;;8.38;;
28844;SDS011;15976;47.938;7.758;2024-03-17T07:39:37;12.18;;;7.03;;
28844;SDS011;15976;47.938;7.758;2024-03-17T07:42:04;12.13;;;7.53;;
28844;SDS011;15976;47.938;7.758;2024-03-17T07:44:30;11.65;;;7.10;;
28844;SDS011;15976;47.938;7.758;2024-03-17T07:47:02;15.27;;;7.72;;
28844;SDS011;15976;47.938;7.758;2024-03-17T07:49:32;10.75;;;6.97;;
28844;SDS011;15976;47.938;7.758;2024-03-17T07:51:58;11.80;;;6.88;;
28844;SDS011;15976;47.938;7.758;2024-03-17T07:54:25;9.05;;;6.15;;
28844;SDS011;15976;47.938;7.758;2024-03-17T07:56:52;12.52;;;6.45;;
28844;SDS011;15976;47.938;7.758;2024-03-17T07:59:18;14.25;;;7.18;;
28844;SDS011;15976;47.938;7.758;2024-03-17T08:01:44;13.15;;;6.68;;
28844;SDS011;15976;47.938;7.758;2024-03-17T08:04:11;11.93;;;6.70;;
28844;SDS011;15976;47.938;7.758;2024-03-17T08:06:38;11.88;;;6.80;;
28844;SDS011;15976;47.938;7.758;2024-03-17T08:09:09;11.90;;;6.88;;
28844;SDS011;15976;47.938;7.758;2024-03-17T08:11:40;10.25;;;6.10;;
28844;SDS011;15976;47.938;7.758;2024-03-17T08:14:12;11.23;;;6.55;;
28844;SDS011;15976;47.938;7.758;2024-03-17T08:16:40;12.75;;;6.90;;
28844;SDS011;15976;47.938;7.758;2024-03-17T08:19:06;12.15;;;6.85;;
28844;SDS011;15976;47.938;7.758;2024-03-17T08:21:32;14.65;;;7.07;;
28844;SDS011;15976;47.938;7.758;2024-03-17T08:23:58;12.23;;;6.70;;
28844;SDS011;15976;47.938;7.758;2024-03-17T08:26:24;13.70;;;7.30;;
28844;SDS011;15976;47.938;7.758;2024-03-17T08:28:50;14.90;;;6.85;;
28844;SDS011;15976;47.938;7.758;2024-03-17T08:31:17;13.13;;;6.68;;
28844;SDS011;15976;47.938;7.758;2024-03-17T08:33:43;17.50;;;6.75;;
28844;SDS011;15976;47.938;7.758;2024-03-17T08:36:09;10.60;;;6.35;;
28844;SDS011;15976;47.938;7.758;2024-03-17T08:38:36;12.05;;;5.93;;
28844;SDS011;15976;47.938;7.758;2024-03-17T08:43:31;11.77;;;5.95;;
28844;SDS011;15976;47.938;7.758;2024-03-17T08:46:01;14.07;;;6.10;;
28844;SDS011;15976;47.938;7.758;2024-03-17T08:48:33;13.00;;;6.60;;
28844;SDS011;15976;47.938;7.758;2024-03-17T08:51:00;22.85;;;11.10;;
28844;SDS011;15976;47.938;7.758;2024-03-17T08:53:27;16.65;;;8.77;;
28844;SDS011;15976;47.938;7.758;2024-03-17T08:55:54;49.60;;;24.25;;
28844;SDS011;15976;47.938;7.758;2024-03-17T08:58:21;25.30;;;13.95;;
28844;SDS011;15976;47.938;7.758;2024-03-17T09:00:48;20.52;;;10.25;;
28844;SDS011;15976;47.938;7.758;2024-03-17T09:03:14;17.45;;;8.32;;
28844;SDS011;15976;47.938;7.758;2024-03-17T09:05:42;15.98;;;8.32;;
28844;SDS011;15976;47.938;7.758;2024-03-17T09:08:16;13.98;;;8.27;;
28844;SDS011;15976;47.938;7.758;2024-03-17T09:10:45;14.38;;;8.88;;
28844;SDS011;15976;47.938;7.758;2024-03-17T09:13:16;18.35;;;8.40;;
28844;SDS011;15976;47.938;7.758;2024-03-17T09:15:57;17.85;;;10.98;;
28844;SDS011;15976;47.938;7.758;2024-03-17T09:18:25;14.55;;;10.18;;
28844;SDS011;15976;47.938;7.758;2024-03-17T09:21:02;16.38;;;7.93;;
28844;SDS011;15976;47.938;7.758;2024-03-17T09:23:34;14.90;;;9.00;;
28844;SDS011;15976;47.938;7.758;2024-03-17T09:26:10;13.95;;;8.73;;
28844;SDS011;15976;47.938;7.758;2024-03-17T09:28:41;15.45;;;8.20;;
28844;SDS011;15976;47.938;7.758;2024-03-17T09:31:07;12.35;;;7.93;;
28844;SDS011;15976;47.938;7.758;2024-03-17T09:33:36;15.75;;;8.93;;
28844;SDS011;15976;47.938;7.758;2024-03-17T09:36:04;15.85;;;8.30;;
28844;SDS011;15976;47.938;7.758;2024-03-17T09:38:31;13.43;;;8.55;;
28844;SDS011;15976;47.938;7.758;2024-03-17T09:40:58;12.68;;;8.27;;
28844;SDS011;15976;47.938;7.758;2024-03-17T09:43:28;11.70;;;8.10;;
28844;SDS011;15976;47.938;7.758;2024-03-17T09:45:55;16.40;;;9.10;;
28844;SDS011;15976;47.938;7.758;2024-03-17T09:48:24;19.02;;;9.27;;
28844;SDS011;15976;47.938;7.758;2024-03-17T09:50:53;16.33;;;9.18;;
28844;SDS011;15976;47.938;7.758;2024-03-17T09:53:28;15.18;;;9.32;;
28844;SDS011;15976;47.938;7.758;2024-03-17T09:58:34;14.65;;;9.30;;
28844;SDS011;15976;47.938;7.758;2024-03-17T10:01:01;17.38;;;10.38;;
28844;SDS011;15976;47.938;7.758;2024-03-17T10:06:08;12.55;;;9.13;;
28844;SDS011;15976;47.938;7.758;2024-03-17T10:11:07;13.05;;;9.00;;
28844;SDS011;15976;47.938;7.758;2024-03-17T10:13:34;17.60;;;10.38;;
28844;SDS011;15976;47.938;7.758;2024-03-17T10:16:00;13.07;;;10.10;;
28844;SDS011;15976;47.938;7.758;2024-03-17T10:18:26;13.13;;;9.40;;
28844;SDS011;15976;47.938;7.758;2024-03-17T10:20:52;15.98;;;9.30;;
28844;SDS011;15976;47.938;7.758;2024-03-17T10:23:22;17.58;;;9.55;;
28844;SDS011;15976;47.938;7.758;2024-03-17T10:25:48;14.68;;;9.52;;
28844;SDS011;15976;47.938;7.758;2024-03-17T10:28:16;13.02;;;9.20;;
28844;SDS011;15976;47.938;7.758;2024-03-17T10:30:56;13.30;;;8.65;;
28844;SDS011;15976;47.938;7.758;2024-03-17T10:33:24;16.67;;;9.50;;
28844;SDS011;15976;47.938;7.758;2024-03-17T10:35:50;13.52;;;8.95;;
28844;SDS011;15976;47.938;7.758;2024-03-17T10:38:25;18.23;;;10.10;;
28844;SDS011;15976;47.938;7.758;2024-03-17T10:40:52;14.57;;;9.25;;
28844;SDS011;15976;47.938;7.758;2024-03-17T10:43:19;11.45;;;9.00;;
28844;SDS011;15976;47.938;7.758;2024-03-17T10:45:51;15.20;;;9.07;;
28844;SDS011;15976;47.938;7.758;2024-03-17T10:48:20;13.45;;;8.65;;
28844;SDS011;15976;47.938;7.758;2024-03-17T10:50:48;13.70;;;8.77;;
28844;SDS011;15976;47.938;7.758;2024-03-17T10:53:15;14.18;;;9.75;;
28844;SDS011;15976;47.938;7.758;2024-03-17T10:55:51;14.25;;;8.07;;
28844;SDS011;15976;47.938;7.758;2024-03-17T11:01:04;14.10;;;7.90;;
28844;SDS011;15976;47.938;7.758;2024-03-17T11:03:32;13.90;;;8.23;;
28844;SDS011;15976;47.938;7.758;2024-03-17T11:05:59;15.73;;;7.80;;
28844;SDS011;15976;47.938;7.758;2024-03-17T11:08:32;12.85;;;8.50;;
28844;SDS011;15976;47.938;7.758;2024-03-17T11:10:59;14.60;;;9.00;;
28844;SDS011;15976;47.938;7.758;2024-03-17T11:13:26;15.55;;;8.55;;
28844;SDS011;15976;47.938;7.758;2024-03-17T11:16:00;16.45;;;10.00;;
28844;SDS011;15976;47.938;7.758;2024-03-17T11:18:36;14.57;;;8.93;;
28844;SDS011;15976;47.938;7.758;2024-03-17T11:21:07;16.27;;;10.43;;
28844;SDS011;15976;47.938;7.758;2024-03-17T11:23:58;15.68;;;9.38;;
28844;SDS011;15976;47.938;7.758;2024-03-17T11:26:29;14.02;;;9.73;;
28844;SDS011;15976;47.938;7.758;2024-03-17T11:28:59;17.73;;;10.45;;
28844;SDS011;15976;47.938;7.758;2024-03-17T11:31:34;17.67;;;11.00;;
28844;SDS011;15976;47.938;7.758;2024-03-17T11:34:06;17.17;;;11.55;;
28844;SDS011;15976;47.938;7.758;2024-03-17T11:36:51;17.35;;;10.93;;
28844;SDS011;15976;47.938;7.758;2024-03-17T11:39:19;15.23;;;10.77;;
28844;SDS011;15976;47.938;7.758;2024-03-17T11:41:47;15.60;;;10.57;;
28844;SDS011;15976;47.938;7.758;2024-03-17T11:49:27;24.08;;;14.50;;
28844;SDS011;15976;47.938;7.758;2024-03-17T11:54:39;18.83;;;11.38;;
28844;SDS011;15976;47.938;7.758;2024-03-17T11:57:07;18.55;;;11.73;;
28844;SDS011;15976;47.938;7.758;2024-03-17T11:59:35;14.88;;;11.40;;
28844;SDS011;15976;47.938;7.758;2024-03-17T12:02:20;16.80;;;10.68;;
28844;SDS011;15976;47.938;7.758;2024-03-17T12:04:56;16.80;;;11.00;;
28844;SDS011;15976;47.938;7.758;2024-03-17T12:07:23;15.30;;;11.10;;
28844;SDS011;15976;47.938;7.758;2024-03-17T12:09:51;14.77;;;10.60;;
28844;SDS011;15976;47.938;7.758;2024-03-17T12:12:23;23.25;;;11.05;;
28844;SDS011;15976;47.938;7.758;2024-03-17T12:14:51;16.75;;;10.90;;
28844;SDS011;15976;47.938;7.758;2024-03-17T12:17:21;16.88;;;10.48;;
28844;SDS011;15976;47.938;7.758;2024-03-17T12:19:50;17.10;;;10.80;;
28844;SDS011;15976;47.938;7.758;2024-03-17T12:22:21;15.45;;;10.13;;
28844;SDS011;15976;47.938;7.758;2024-03-17T12:24:49;14.75;;;10.73;;
28844;SDS011;15976;47.938;7.758;2024-03-17T12:27:19;16.50;;;11.35;;
28844;SDS011;15976;47.938;7.758;2024-03-17T12:29:50;15.45;;;10.25;;
28844;SDS011;15976;47.938;7.758;2024-03-17T12:32:21;23.63;;;10.77;;
28844;SDS011;15976;47.938;7.758;2024-03-17T12:34:50;17.83;;;10.77;;
28844;SDS011;15976;47.938;7.758;2024-03-17T12:37:21;15.52;;;9.60;;
28844;SDS011;15976;47.938;7.758;2024-03-17T12:39:55;16.92;;;10.32;;
28844;SDS011;15976;47.938;7.758;2024-03-17T12:42:23;15.38;;;9.98;;
28844;SDS011;15976;47.938;7.758;2024-03-17T12:44:51;14.77;;;9.95;;
28844;SDS011;15976;47.938;7.758;2024-03-17T12:47:22;14.77;;;10.03;;
28844;SDS011;15976;47.938;7.758;2024-03-17T12:52:18;17.83;;;9.95;;
28844;SDS011;15976;47.938;7.758;2024-03-17T12:54:56;18.92;;;10.75;;
28844;SDS011;15976;47.938;7.758;2024-03-17T13:00:47;15.85;;;9.93;;
28844;SDS011;15976;47.938;7.758;2024-03-17T13:03:35;16.83;;;9.82;;
28844;SDS011;15976;47.938;7.758;2024-03-17T13:06:02;15.18;;;10.10;;
28844;SDS011;15976;47.938;7.758;2024-03-17T13:08:34;18.05;;;10.95;;
28844;SDS011;15976;47.938;7.758;2024-03-17T13:11:00;18.92;;;10.07;;
28844;SDS011;15976;47.938;7.758;2024-03-17T13:13:29;15.30;;;9.65;;
28844;SDS011;15976;47.938;7.758;2024-03-17T13:15:56;15.90;;;9.27;;
28844;SDS011;15976;47.938;7.758;2024-03-17T13:18:22;13.90;;;8.52;;
28844;SDS011;15976;47.938;7.758;2024-03-17T13:20:48;15.05;;;8.85;;
28844;SDS011;15976;47.938;7.758;2024-03-17T13:23:19;14.85;;;8.20;;
28844;SDS011;15976;47.938;7.758;2024-03-17T13:25:49;12.32;;;8.30;;
28844;SDS011;15976;47.938;7.758;2024-03-17T13:28:15;14.82;;;8.73;;
28844;SDS011;15976;47.938;7.758;2024-03-17T13:30:42;13.38;;;7.95;;
28844;SDS011;15976;47.938;7.758;2024-03-17T13:33:09;13.68;;;8.48;;
28844;SDS011;15976;47.938;7.758;2024-03-17T13:35:37;18.10;;;8.50;;
28844;SDS011;15976;47.938;7.758;2024-03-17T13:38:05;14.57;;;8.43;;
28844;SDS011;15976;47.938;7.758;2024-03-17T13:40:32;13.27;;;8.32;;
28844;SDS011;15976;47.938;7.758;2024-03-17T13:43:03;16.58;;;8.38;;
28844;SDS011;15976;47.938;7.758;2024-03-17T13:45:31;16.35;;;8.70;;
28844;SDS011;15976;47.938;7.758;2024-03-17T13:48:03;13.02;;;8.55;;
28844;SDS011;15976;47.938;7.758;2024-03-17T13:50:31;16.73;;;8.77;;
28844;SDS011;15976;47.938;7.758;2024-03-17T13:52:57;16.38;;;9.13;;
28844;SDS011;15976;47.938;7.758;2024-03-17T13:55:24;17.17;;;8.80;;
28844;SDS011;15976;47.938;7.758;2024-03-17T13:57:55;11.48;;;8.10;;
28844;SDS011;15976;47.938;7.758;2024-03-17T14:00:26;17.30;;;8.20;;
28844;SDS011;15976;47.938;7.758;2024-03-17T14:02:54;10.43;;;7.88;;
28844;SDS011;15976;47.938;7.758;2024-03-17T14:05:24;11.52;;;7.50;;
28844;SDS011;15976;47.938;7.758;2024-03-17T14:07:52;14.40;;;7.43;;
28844;SDS011;15976;47.938;7.758;2024-03-17T14:10:24;16.27;;;9.00;;
28844;SDS011;15976;47.938;7.758;2024-03-17T14:12:51;14.57;;;7.80;;
28844;SDS011;15976;47.938;7.758;2024-03-17T14:15:19;14.43;;;8.48;;
28844;SDS011;15976;47.938;7.758;2024-03-17T14:17:45;27.05;;;7.93;;
28844;SDS011;15976;47.938;7.758;2024-03-17T14:20:13;15.70;;;7.95;;
28844;SDS011;15976;47.938;7.758;2024-03-17T14:22:40;11.63;;;7.22;;
28844;SDS011;15976;47.938;7.758;2024-03-17T14:25:08;13.35;;;7.88;;
28844;SDS011;15976;47.938;7.758;2024-03-17T14:27:36;10.65;;;7.20;;
28844;SDS011;15976;47.938;7.758;2024-03-17T14:30:02;17.58;;;7.78;;
28844;SDS011;15976;47.938;7.758;2024-03-17T14:32:30;12.13;;;7.25;;
28844;SDS011;15976;47.938;7.758;2024-03-17T14:34:56;19.63;;;8.10;;
28844;SDS011;15976;47.938;7.758;2024-03-17T14:37:22;10.88;;;6.78;;
28844;SDS011;15976;47.938;7.758;2024-03-17T14:39:49;16.92;;;9.27;;
28844;SDS011;15976;47.938;7.758;2024-03-17T14:42:16;12.98;;;7.95;;
28844;SDS011;15976;47.938;7.758;2024-03-17T14:44:42;15.30;;;7.97;;
28844;SDS011;15976;47.938;7.758;2024-03-17T14:47:08;9.77;;;7.35;;
28844;SDS011;15976;47.938;7.758;2024-03-17T14:49:36;11.85;;;7.90;;
28844;SDS011;15976;47.938;7.758;2024-03-17T14:52:03;13.80;;;7.90;;
28844;SDS011;15976;47.938;7.758;2024-03-17T14:54:31;12.77;;;7.85;;
28844;SDS011;15976;47.938;7.758;2024-03-17T14:56:57;16.55;;;7.93;;
28844;SDS011;15976;47.938;7.758;2024-03-17T14:59:24;13.32;;;8.35;;
28844;SDS011;15976;47.938;7.758;2024-03-17T15:01:50;19.38;;;8.77;;
28844;SDS011;15976;47.938;7.758;2024-03-17T15:04:19;19.25;;;9.57;;
28844;SDS011;15976;47.938;7.758;2024-03-17T15:06:46;17.10;;;9.82;;